sensor_id;sensor_type;location;lat;lon;timestamp;P1;durP1;ratioP1;P2;durP2;ratioP2
15526;SDS011;7865;50.918;4.510;2023-10-09T00:02:48;9.18;;;6.65;;
15526;SDS011;7865;50.918;4.510;2023-10-09T00:07:50;12.15;;;7.03;;
15526;SDS011;7865;50.918;4.510;2023-10-09T00:12:57;14.75;;;7.18;;
15526;SDS011;7865;50.918;4.510;2023-10-09T00:17:59;13.43;;;7.03;;
15526;SDS011;7865;50.918;4.510;2023-10-09T00:23:01;12.93;;;6.47;;
15526;SDS011;7865;50.918;4.510;2023-10-09T00:28:03;13.73;;;7.18;;
15526;SDS011;7865;50.918;4.510;2023-10-09T00:33:20;11.40;;;7.53;;
15526;SDS011;7865;50.918;4.510;2023-10-09T00:38:23;15.18;;;7.20;;
15526;SDS011;7865;50.918;4.510;2023-10-09T00:43:33;14.32;;;8.02;;
15526;SDS011;7865;50.918;4.510;2023-10-09T00:48:37;13.23;;;7.78;;
15526;SDS011;7865;50.918;4.510;2023-10-09T00:53:43;11.68;;;7.55;;
15526;SDS011;7865;50.918;4.510;2023-10-09T00:58:58;11.98;;;7.45;;
15526;SDS011;7865;50.918;4.510;2023-10-09T01:04:03;15.73;;;7.82;;
15526;SDS011;7865;50.918;4.510;2023-10-09T01:09:20;15.57;;;7.57;;
15526;SDS011;7865;50.918;4.510;2023-10-09T01:14:24;15.05;;;8.77;;
15526;SDS011;7865;50.918;4.510;2023-10-09T01:19:26;11.43;;;7.38;;
15526;SDS011;7865;50.918;4.510;2023-10-09T01:24:32;11.77;;;7.80;;
15526;SDS011;7865;50.918;4.510;2023-10-09T01:29:37;11.02;;;7.53;;
15526;SDS011;7865;50.918;4.510;2023-10-09T01:34:41;13.25;;;9.30;;
15526;SDS011;7865;50.918;4.510;2023-10-09T01:39:46;17.13;;;8.45;;
15526;SDS011;7865;50.918;4.510;2023-10-09T01:44:50;12.65;;;8.20;;
15526;SDS011;7865;50.918;4.510;2023-10-09T01:49:54;13.93;;;8.45;;
15526;SDS011;7865;50.918;4.510;2023-10-09T01:54:59;9.30;;;7.10;;
15526;SDS011;7865;50.918;4.510;2023-10-09T02:00:08;13.43;;;8.38;;
15526;SDS011;7865;50.918;4.510;2023-10-09T02:05:14;10.52;;;7.47;;
15526;SDS011;7865;50.918;4.510;2023-10-09T02:10:15;13.50;;;7.93;;
15526;SDS011;7865;50.918;4.510;2023-10-09T02:15:30;12.90;;;7.93;;
15526;SDS011;7865;50.918;4.510;2023-10-09T02:20:45;11.20;;;7.43;;
15526;SDS011;7865;50.918;4.510;2023-10-09T02:25:48;14.93;;;7.35;;
15526;SDS011;7865;50.918;4.510;2023-10-09T02:30:54;14.00;;;7.75;;
15526;SDS011;7865;50.918;4.510;2023-10-09T02:36:02;11.45;;;7.78;;
15526;SDS011;7865;50.918;4.510;2023-10-09T02:41:07;10.48;;;7.68;;
15526;SDS011;7865;50.918;4.510;2023-10-09T02:46:15;10.70;;;7.40;;
15526;SDS011;7865;50.918;4.510;2023-10-09T02:51:35;12.57;;;7.93;;
15526;SDS011;7865;50.918;4.510;2023-10-09T02:56:46;13.38;;;8.50;;
15526;SDS011;7865;50.918;4.510;2023-10-09T03:01:56;13.60;;;7.47;;
15526;SDS011;7865;50.918;4.510;2023-10-09T03:07:02;11.63;;;7.00;;
15526;SDS011;7865;50.918;4.510;2023-10-09T03:12:05;12.25;;;7.78;;
15526;SDS011;7865;50.918;4.510;2023-10-09T03:17:11;12.90;;;8.35;;
15526;SDS011;7865;50.918;4.510;2023-10-09T03:22:14;15.85;;;8.55;;
15526;SDS011;7865;50.918;4.510;2023-10-09T03:27:16;13.63;;;9.40;;
15526;SDS011;7865;50.918;4.510;2023-10-09T03:32:18;14.38;;;8.90;;
15526;SDS011;7865;50.918;4.510;2023-10-09T03:37:21;13.85;;;8.93;;
15526;SDS011;7865;50.918;4.510;2023-10-09T03:42:25;13.73;;;8.23;;
15526;SDS011;7865;50.918;4.510;2023-10-09T03:47:27;11.77;;;8.43;;
15526;SDS011;7865;50.918;4.510;2023-10-09T03:52:29;15.35;;;9.60;;
15526;SDS011;7865;50.918;4.510;2023-10-09T03:57:32;13.50;;;9.60;;
15526;SDS011;7865;50.918;4.510;2023-10-09T04:02:34;15.73;;;10.23;;
15526;SDS011;7865;50.918;4.510;2023-10-09T04:07:36;16.00;;;10.10;;
15526;SDS011;7865;50.918;4.510;2023-10-09T04:12:38;15.10;;;9.55;;
15526;SDS011;7865;50.918;4.510;2023-10-09T04:17:41;13.85;;;10.10;;
15526;SDS011;7865;50.918;4.510;2023-10-09T04:22:45;14.63;;;9.68;;
15526;SDS011;7865;50.918;4.510;2023-10-09T04:28:01;16.33;;;10.38;;
15526;SDS011;7865;50.918;4.510;2023-10-09T04:33:26;15.02;;;10.27;;
15526;SDS011;7865;50.918;4.510;2023-10-09T04:38:44;17.80;;;10.07;;
15526;SDS011;7865;50.918;4.510;2023-10-09T04:44:05;18.13;;;10.93;;
15526;SDS011;7865;50.918;4.510;2023-10-09T04:49:19;16.20;;;10.55;;
15526;SDS011;7865;50.918;4.510;2023-10-09T04:54:29;17.23;;;10.55;;
15526;SDS011;7865;50.918;4.510;2023-10-09T04:59:41;20.00;;;11.95;;
15526;SDS011;7865;50.918;4.510;2023-10-09T05:04:48;20.55;;;11.90;;
15526;SDS011;7865;50.918;4.510;2023-10-09T05:10:10;19.25;;;11.02;;
15526;SDS011;7865;50.918;4.510;2023-10-09T05:15:20;20.08;;;11.32;;
15526;SDS011;7865;50.918;4.510;2023-10-09T05:20:28;18.23;;;12.00;;
15526;SDS011;7865;50.918;4.510;2023-10-09T05:25:30;19.67;;;12.35;;
15526;SDS011;7865;50.918;4.510;2023-10-09T05:30:52;21.55;;;12.02;;
15526;SDS011;7865;50.918;4.510;2023-10-09T05:36:08;16.00;;;11.68;;
15526;SDS011;7865;50.918;4.510;2023-10-09T05:41:33;19.73;;;12.23;;
15526;SDS011;7865;50.918;4.510;2023-10-09T05:46:49;20.77;;;12.63;;
15526;SDS011;7865;50.918;4.510;2023-10-09T05:52:12;19.17;;;11.90;;
15526;SDS011;7865;50.918;4.510;2023-10-09T05:57:33;19.55;;;12.18;;
15526;SDS011;7865;50.918;4.510;2023-10-09T06:02:53;22.30;;;12.35;;
15526;SDS011;7865;50.918;4.510;2023-10-09T06:08:13;20.48;;;12.48;;
15526;SDS011;7865;50.918;4.510;2023-10-09T06:13:18;19.60;;;12.65;;
15526;SDS011;7865;50.918;4.510;2023-10-09T06:18:39;18.67;;;11.27;;
15526;SDS011;7865;50.918;4.510;2023-10-09T06:23:45;17.17;;;12.07;;
15526;SDS011;7865;50.918;4.510;2023-10-09T06:29:11;17.90;;;11.98;;
15526;SDS011;7865;50.918;4.510;2023-10-09T06:34:17;22.50;;;11.93;;
15526;SDS011;7865;50.918;4.510;2023-10-09T06:39:19;19.70;;;12.63;;
15526;SDS011;7865;50.918;4.510;2023-10-09T06:44:40;22.15;;;12.88;;
15526;SDS011;7865;50.918;4.510;2023-10-09T06:49:54;18.48;;;12.35;;
15526;SDS011;7865;50.918;4.510;2023-10-09T06:55:27;21.52;;;11.82;;
15526;SDS011;7865;50.918;4.510;2023-10-09T07:00:58;21.70;;;13.27;;
15526;SDS011;7865;50.918;4.510;2023-10-09T07:06:10;21.05;;;12.52;;
15526;SDS011;7865;50.918;4.510;2023-10-09T07:11:50;18.73;;;12.57;;
15526;SDS011;7865;50.918;4.510;2023-10-09T07:17:00;20.08;;;12.95;;
15526;SDS011;7865;50.918;4.510;2023-10-09T07:22:03;22.23;;;13.07;;
15526;SDS011;7865;50.918;4.510;2023-10-09T07:27:05;24.45;;;13.07;;
15526;SDS011;7865;50.918;4.510;2023-10-09T07:32:14;23.92;;;12.60;;
15526;SDS011;7865;50.918;4.510;2023-10-09T07:37:22;21.08;;;12.85;;
15526;SDS011;7865;50.918;4.510;2023-10-09T07:42:25;19.17;;;11.82;;
15526;SDS011;7865;50.918;4.510;2023-10-09T07:47:42;18.70;;;11.75;;
15526;SDS011;7865;50.918;4.510;2023-10-09T07:53:02;20.73;;;12.60;;
15526;SDS011;7865;50.918;4.510;2023-10-09T07:58:27;25.23;;;13.25;;
15526;SDS011;7865;50.918;4.510;2023-10-09T08:03:30;20.77;;;12.68;;
15526;SDS011;7865;50.918;4.510;2023-10-09T08:08:35;25.95;;;12.73;;
15526;SDS011;7865;50.918;4.510;2023-10-09T08:13:40;20.38;;;11.95;;
15526;SDS011;7865;50.918;4.510;2023-10-09T08:18:51;19.55;;;12.95;;
15526;SDS011;7865;50.918;4.510;2023-10-09T08:23:53;18.30;;;12.43;;
15526;SDS011;7865;50.918;4.510;2023-10-09T08:28:56;22.13;;;12.70;;
15526;SDS011;7865;50.918;4.510;2023-10-09T08:34:27;18.70;;;12.75;;
15526;SDS011;7865;50.918;4.510;2023-10-09T08:39:32;20.50;;;12.63;;
15526;SDS011;7865;50.918;4.510;2023-10-09T08:44:36;23.73;;;13.13;;
15526;SDS011;7865;50.918;4.510;2023-10-09T08:49:41;17.33;;;11.70;;
15526;SDS011;7865;50.918;4.510;2023-10-09T08:54:44;18.77;;;11.52;;
15526;SDS011;7865;50.918;4.510;2023-10-09T08:59:45;18.00;;;11.93;;
15526;SDS011;7865;50.918;4.510;2023-10-09T09:04:48;15.40;;;11.25;;
15526;SDS011;7865;50.918;4.510;2023-10-09T09:09:56;19.00;;;10.52;;
15526;SDS011;7865;50.918;4.510;2023-10-09T09:15:13;20.00;;;11.27;;
15526;SDS011;7865;50.918;4.510;2023-10-09T09:20:25;20.60;;;10.70;;
15526;SDS011;7865;50.918;4.510;2023-10-09T09:25:43;16.23;;;10.77;;
15526;SDS011;7865;50.918;4.510;2023-10-09T09:31:08;16.55;;;11.30;;
15526;SDS011;7865;50.918;4.510;2023-10-09T09:36:24;15.35;;;10.55;;
15526;SDS011;7865;50.918;4.510;2023-10-09T09:41:30;18.88;;;11.50;;
15526;SDS011;7865;50.918;4.510;2023-10-09T09:46:35;20.92;;;11.73;;
15526;SDS011;7865;50.918;4.510;2023-10-09T09:51:39;20.85;;;11.65;;
15526;SDS011;7865;50.918;4.510;2023-10-09T09:56:44;15.45;;;10.70;;
15526;SDS011;7865;50.918;4.510;2023-10-09T10:01:54;17.10;;;10.82;;
15526;SDS011;7865;50.918;4.510;2023-10-09T10:06:59;24.13;;;11.50;;
15526;SDS011;7865;50.918;4.510;2023-10-09T10:12:10;17.60;;;11.80;;
15526;SDS011;7865;50.918;4.510;2023-10-09T10:17:13;16.70;;;11.40;;
15526;SDS011;7865;50.918;4.510;2023-10-09T10:22:23;14.07;;;10.98;;
15526;SDS011;7865;50.918;4.510;2023-10-09T10:27:32;22.02;;;11.88;;
15526;SDS011;7865;50.918;4.510;2023-10-09T10:37:54;20.65;;;11.07;;
15526;SDS011;7865;50.918;4.510;2023-10-09T10:43:22;18.55;;;11.70;;
15526;SDS011;7865;50.918;4.510;2023-10-09T10:48:35;21.00;;;11.52;;
15526;SDS011;7865;50.918;4.510;2023-10-09T10:53:50;14.35;;;11.05;;
15526;SDS011;7865;50.918;4.510;2023-10-09T10:59:13;17.83;;;10.35;;
15526;SDS011;7865;50.918;4.510;2023-10-09T11:04:16;18.63;;;10.75;;
15526;SDS011;7865;50.918;4.510;2023-10-09T11:09:26;15.38;;;11.18;;
15526;SDS011;7865;50.918;4.510;2023-10-09T11:14:52;16.25;;;10.63;;
15526;SDS011;7865;50.918;4.510;2023-10-09T11:20:07;18.70;;;11.25;;
15526;SDS011;7865;50.918;4.510;2023-10-09T11:25:33;15.30;;;10.55;;
15526;SDS011;7865;50.918;4.510;2023-10-09T11:30:36;16.77;;;10.18;;
15526;SDS011;7865;50.918;4.510;2023-10-09T11:35:40;16.33;;;10.45;;
15526;SDS011;7865;50.918;4.510;2023-10-09T11:40:45;17.05;;;11.07;;
15526;SDS011;7865;50.918;4.510;2023-10-09T11:45:53;16.58;;;9.80;;
15526;SDS011;7865;50.918;4.510;2023-10-09T11:50:57;20.23;;;10.55;;
15526;SDS011;7865;50.918;4.510;2023-10-09T11:56:05;20.65;;;10.18;;
15526;SDS011;7865;50.918;4.510;2023-10-09T12:01:11;16.52;;;9.05;;
15526;SDS011;7865;50.918;4.510;2023-10-09T12:06:24;16.00;;;9.05;;
15526;SDS011;7865;50.918;4.510;2023-10-09T12:11:33;15.27;;;9.25;;
15526;SDS011;7865;50.918;4.510;2023-10-09T12:16:36;15.50;;;9.68;;
15526;SDS011;7865;50.918;4.510;2023-10-09T12:21:41;16.48;;;9.38;;
15526;SDS011;7865;50.918;4.510;2023-10-09T12:26:44;14.15;;;9.15;;
15526;SDS011;7865;50.918;4.510;2023-10-09T12:31:47;13.05;;;8.98;;
15526;SDS011;7865;50.918;4.510;2023-10-09T12:36:49;15.27;;;9.38;;
15526;SDS011;7865;50.918;4.510;2023-10-09T12:41:51;14.07;;;10.18;;
15526;SDS011;7865;50.918;4.510;2023-10-09T12:46:56;14.82;;;10.00;;
15526;SDS011;7865;50.918;4.510;2023-10-09T12:51:58;18.23;;;9.80;;
15526;SDS011;7865;50.918;4.510;2023-10-09T12:57:01;14.15;;;10.00;;
15526;SDS011;7865;50.918;4.510;2023-10-09T13:02:03;14.50;;;9.32;;
15526;SDS011;7865;50.918;4.510;2023-10-09T13:07:07;15.40;;;9.70;;
15526;SDS011;7865;50.918;4.510;2023-10-09T13:12:09;14.88;;;9.65;;
15526;SDS011;7865;50.918;4.510;2023-10-09T13:17:20;17.45;;;10.98;;
15526;SDS011;7865;50.918;4.510;2023-10-09T13:22:23;17.45;;;10.63;;
15526;SDS011;7865;50.918;4.510;2023-10-09T13:27:26;18.23;;;10.60;;
15526;SDS011;7865;50.918;4.510;2023-10-09T13:32:35;22.08;;;10.98;;
15526;SDS011;7865;50.918;4.510;2023-10-09T13:37:38;25.40;;;11.02;;
15526;SDS011;7865;50.918;4.510;2023-10-09T13:42:39;16.40;;;12.07;;
15526;SDS011;7865;50.918;4.510;2023-10-09T13:47:42;17.95;;;11.63;;
15526;SDS011;7865;50.918;4.510;2023-10-09T13:52:47;16.38;;;10.90;;
15526;SDS011;7865;50.918;4.510;2023-10-09T13:57:49;20.83;;;12.05;;
15526;SDS011;7865;50.918;4.510;2023-10-09T14:02:51;16.95;;;11.07;;
15526;SDS011;7865;50.918;4.510;2023-10-09T14:07:53;15.38;;;11.32;;
15526;SDS011;7865;50.918;4.510;2023-10-09T14:12:56;18.95;;;11.55;;
15526;SDS011;7865;50.918;4.510;2023-10-09T14:17:58;17.98;;;11.65;;
15526;SDS011;7865;50.918;4.510;2023-10-09T14:23:03;18.40;;;12.60;;
15526;SDS011;7865;50.918;4.510;2023-10-09T14:28:09;20.13;;;11.27;;
15526;SDS011;7865;50.918;4.510;2023-10-09T14:33:11;19.98;;;12.10;;
15526;SDS011;7865;50.918;4.510;2023-10-09T14:38:24;18.40;;;11.98;;
15526;SDS011;7865;50.918;4.510;2023-10-09T14:43:29;15.43;;;11.10;;
15526;SDS011;7865;50.918;4.510;2023-10-09T14:48:35;19.05;;;12.13;;
15526;SDS011;7865;50.918;4.510;2023-10-09T14:53:39;16.45;;;11.63;;
15526;SDS011;7865;50.918;4.510;2023-10-09T14:58:42;13.60;;;10.52;;
15526;SDS011;7865;50.918;4.510;2023-10-09T15:03:43;16.67;;;11.90;;
15526;SDS011;7865;50.918;4.510;2023-10-09T15:08:49;19.40;;;11.27;;
15526;SDS011;7865;50.918;4.510;2023-10-09T15:13:51;17.45;;;12.15;;
15526;SDS011;7865;50.918;4.510;2023-10-09T15:18:55;16.10;;;9.85;;
15526;SDS011;7865;50.918;4.510;2023-10-09T15:24:04;16.92;;;12.32;;
15526;SDS011;7865;50.918;4.510;2023-10-09T15:29:06;17.33;;;11.35;;
15526;SDS011;7865;50.918;4.510;2023-10-09T15:34:08;22.27;;;13.57;;
15526;SDS011;7865;50.918;4.510;2023-10-09T15:39:10;19.15;;;12.93;;
15526;SDS011;7865;50.918;4.510;2023-10-09T15:44:13;19.85;;;11.70;;
15526;SDS011;7865;50.918;4.510;2023-10-09T15:49:15;21.35;;;12.80;;
15526;SDS011;7865;50.918;4.510;2023-10-09T15:54:17;20.20;;;12.90;;
15526;SDS011;7865;50.918;4.510;2023-10-09T15:59:21;17.40;;;11.85;;
15526;SDS011;7865;50.918;4.510;2023-10-09T16:04:25;19.38;;;11.68;;
15526;SDS011;7865;50.918;4.510;2023-10-09T16:09:28;21.17;;;12.32;;
15526;SDS011;7865;50.918;4.510;2023-10-09T16:14:32;19.63;;;12.75;;
15526;SDS011;7865;50.918;4.510;2023-10-09T16:19:36;23.58;;;12.85;;
15526;SDS011;7865;50.918;4.510;2023-10-09T16:24:39;20.92;;;14.20;;
15526;SDS011;7865;50.918;4.510;2023-10-09T16:29:41;19.27;;;13.95;;
15526;SDS011;7865;50.918;4.510;2023-10-09T16:34:52;19.45;;;12.90;;
15526;SDS011;7865;50.918;4.510;2023-10-09T16:39:54;21.55;;;12.23;;
15526;SDS011;7865;50.918;4.510;2023-10-09T16:44:56;24.05;;;13.13;;
15526;SDS011;7865;50.918;4.510;2023-10-09T16:49:58;19.13;;;13.30;;
15526;SDS011;7865;50.918;4.510;2023-10-09T16:55:02;24.75;;;14.13;;
15526;SDS011;7865;50.918;4.510;2023-10-09T17:00:11;26.65;;;14.75;;
15526;SDS011;7865;50.918;4.510;2023-10-09T17:05:29;23.20;;;14.38;;
15526;SDS011;7865;50.918;4.510;2023-10-09T17:10:34;20.20;;;14.60;;
15526;SDS011;7865;50.918;4.510;2023-10-09T17:15:38;25.00;;;15.13;;
15526;SDS011;7865;50.918;4.510;2023-10-09T17:20:40;24.85;;;16.73;;
15526;SDS011;7865;50.918;4.510;2023-10-09T17:25:50;22.52;;;14.27;;
15526;SDS011;7865;50.918;4.510;2023-10-09T17:31:00;22.00;;;14.02;;
15526;SDS011;7865;50.918;4.510;2023-10-09T17:36:06;21.23;;;14.40;;
15526;SDS011;7865;50.918;4.510;2023-10-09T17:41:08;21.65;;;14.10;;
15526;SDS011;7865;50.918;4.510;2023-10-09T17:46:10;19.27;;;13.20;;
15526;SDS011;7865;50.918;4.510;2023-10-09T17:51:16;20.48;;;13.43;;
15526;SDS011;7865;50.918;4.510;2023-10-09T17:56:20;21.83;;;12.85;;
15526;SDS011;7865;50.918;4.510;2023-10-09T18:01:27;23.70;;;12.95;;
15526;SDS011;7865;50.918;4.510;2023-10-09T18:06:29;21.88;;;13.55;;
15526;SDS011;7865;50.918;4.510;2023-10-09T18:11:31;21.88;;;14.68;;
15526;SDS011;7865;50.918;4.510;2023-10-09T18:16:33;30.15;;;15.18;;
15526;SDS011;7865;50.918;4.510;2023-10-09T18:21:35;22.27;;;15.55;;
15526;SDS011;7865;50.918;4.510;2023-10-09T18:26:43;26.05;;;14.82;;
15526;SDS011;7865;50.918;4.510;2023-10-09T18:31:46;20.65;;;14.48;;
15526;SDS011;7865;50.918;4.510;2023-10-09T18:36:48;20.77;;;14.10;;
15526;SDS011;7865;50.918;4.510;2023-10-09T18:41:51;23.50;;;14.40;;
15526;SDS011;7865;50.918;4.510;2023-10-09T18:46:53;22.35;;;14.27;;
15526;SDS011;7865;50.918;4.510;2023-10-09T18:51:56;24.58;;;14.80;;
15526;SDS011;7865;50.918;4.510;2023-10-09T18:56:58;22.30;;;14.93;;
15526;SDS011;7865;50.918;4.510;2023-10-09T19:01:59;24.63;;;15.05;;
15526;SDS011;7865;50.918;4.510;2023-10-09T19:07:03;20.13;;;14.23;;
15526;SDS011;7865;50.918;4.510;2023-10-09T19:12:07;23.67;;;15.02;;
15526;SDS011;7865;50.918;4.510;2023-10-09T19:17:09;21.98;;;14.38;;
15526;SDS011;7865;50.918;4.510;2023-10-09T19:22:13;25.05;;;16.60;;
15526;SDS011;7865;50.918;4.510;2023-10-09T19:27:17;22.08;;;14.32;;
15526;SDS011;7865;50.918;4.510;2023-10-09T19:32:22;24.23;;;13.18;;
15526;SDS011;7865;50.918;4.510;2023-10-09T19:37:24;21.13;;;16.13;;
15526;SDS011;7865;50.918;4.510;2023-10-09T19:42:26;25.00;;;15.65;;
15526;SDS011;7865;50.918;4.510;2023-10-09T19:47:27;21.70;;;15.27;;
15526;SDS011;7865;50.918;4.510;2023-10-09T19:52:30;21.25;;;15.27;;
15526;SDS011;7865;50.918;4.510;2023-10-09T19:57:31;21.80;;;15.52;;
15526;SDS011;7865;50.918;4.510;2023-10-09T20:02:34;23.95;;;16.42;;
15526;SDS011;7865;50.918;4.510;2023-10-09T20:07:37;23.17;;;15.23;;
15526;SDS011;7865;50.918;4.510;2023-10-09T20:12:39;21.92;;;15.40;;
15526;SDS011;7865;50.918;4.510;2023-10-09T20:17:42;21.27;;;14.88;;
15526;SDS011;7865;50.918;4.510;2023-10-09T20:22:45;21.33;;;15.00;;
15526;SDS011;7865;50.918;4.510;2023-10-09T20:27:47;28.35;;;14.13;;
15526;SDS011;7865;50.918;4.510;2023-10-09T20:32:51;22.02;;;15.65;;
15526;SDS011;7865;50.918;4.510;2023-10-09T20:37:56;19.88;;;15.35;;
15526;SDS011;7865;50.918;4.510;2023-10-09T20:43:03;21.77;;;14.98;;
15526;SDS011;7865;50.918;4.510;2023-10-09T20:48:05;20.00;;;15.35;;
15526;SDS011;7865;50.918;4.510;2023-10-09T20:53:07;28.77;;;16.98;;
15526;SDS011;7865;50.918;4.510;2023-10-09T20:58:10;19.08;;;13.70;;
15526;SDS011;7865;50.918;4.510;2023-10-09T21:03:12;22.02;;;14.88;;
15526;SDS011;7865;50.918;4.510;2023-10-09T21:08:17;21.58;;;14.75;;
15526;SDS011;7865;50.918;4.510;2023-10-09T21:13:20;19.55;;;14.63;;
15526;SDS011;7865;50.918;4.510;2023-10-09T21:18:22;19.77;;;13.73;;
15526;SDS011;7865;50.918;4.510;2023-10-09T21:23:24;19.20;;;13.43;;
15526;SDS011;7865;50.918;4.510;2023-10-09T21:28:26;23.63;;;14.20;;
15526;SDS011;7865;50.918;4.510;2023-10-09T21:33:28;20.38;;;14.82;;
15526;SDS011;7865;50.918;4.510;2023-10-09T21:38:30;24.52;;;16.70;;
15526;SDS011;7865;50.918;4.510;2023-10-09T21:43:32;22.23;;;14.95;;
15526;SDS011;7865;50.918;4.510;2023-10-09T21:48:35;24.27;;;16.02;;
15526;SDS011;7865;50.918;4.510;2023-10-09T21:53:37;22.63;;;15.75;;
15526;SDS011;7865;50.918;4.510;2023-10-09T21:58:41;20.08;;;14.80;;
15526;SDS011;7865;50.918;4.510;2023-10-09T22:03:44;21.88;;;14.30;;
15526;SDS011;7865;50.918;4.510;2023-10-09T22:08:47;20.10;;;13.95;;
15526;SDS011;7865;50.918;4.510;2023-10-09T22:13:48;20.70;;;14.90;;
15526;SDS011;7865;50.918;4.510;2023-10-09T22:18:51;22.43;;;15.67;;
15526;SDS011;7865;50.918;4.510;2023-10-09T22:24:13;27.17;;;16.07;;
15526;SDS011;7865;50.918;4.510;2023-10-09T22:29:19;22.47;;;15.73;;
15526;SDS011;7865;50.918;4.510;2023-10-09T22:34:22;21.23;;;15.73;;
15526;SDS011;7865;50.918;4.510;2023-10-09T22:39:23;22.37;;;14.83;;
15526;SDS011;7865;50.918;4.510;2023-10-09T22:44:35;21.40;;;16.00;;
15526;SDS011;7865;50.918;4.510;2023-10-09T22:49:39;23.67;;;16.37;;
15526;SDS011;7865;50.918;4.510;2023-10-09T22:54:44;25.67;;;16.27;;
15526;SDS011;7865;50.918;4.510;2023-10-09T22:59:50;24.70;;;17.60;;
15526;SDS011;7865;50.918;4.510;2023-10-09T23:04:53;22.80;;;17.03;;
15526;SDS011;7865;50.918;4.510;2023-10-09T23:10:05;22.53;;;17.07;;
15526;SDS011;7865;50.918;4.510;2023-10-09T23:15:19;25.50;;;18.50;;
15526;SDS011;7865;50.918;4.510;2023-10-09T23:20:37;29.67;;;19.37;;
15526;SDS011;7865;50.918;4.510;2023-10-09T23:25:53;32.00;;;18.90;;
15526;SDS011;7865;50.918;4.510;2023-10-09T23:30:56;24.67;;;17.20;;
15526;SDS011;7865;50.918;4.510;2023-10-09T23:35:59;24.53;;;17.03;;
15526;SDS011;7865;50.918;4.510;2023-10-09T23:41:09;24.43;;;17.50;;
15526;SDS011;7865;50.918;4.510;2023-10-09T23:46:12;27.33;;;17.83;;
15526;SDS011;7865;50.918;4.510;2023-10-09T23:51:19;27.77;;;16.80;;
15526;SDS011;7865;50.918;4.510;2023-10-09T23:56:21;21.43;;;15.83;;
